sensor_id;sensor_type;location;lat;lon;timestamp;temperature;humidity
46117;DHT22;32591;48.102;11.772;2023-02-15T00:00:04;0.90;99.90
46117;DHT22;32591;48.102;11.772;2023-02-15T00:02:33;0.90;99.90
46117;DHT22;32591;48.102;11.772;2023-02-15T00:05:00;0.90;99.90
46117;DHT22;32591;48.102;11.772;2023-02-15T00:07:27;0.90;99.90
46117;DHT22;32591;48.102;11.772;2023-02-15T00:09:54;0.80;99.90
46117;DHT22;32591;48.102;11.772;2023-02-15T00:12:21;0.80;99.90
46117;DHT22;32591;48.102;11.772;2023-02-15T00:14:49;0.80;99.90
46117;DHT22;32591;48.102;11.772;2023-02-15T00:17:16;0.80;99.90
46117;DHT22;32591;48.102;11.772;2023-02-15T00:19:43;0.70;99.90
46117;DHT22;32591;48.102;11.772;2023-02-15T00:22:09;0.70;99.90
46117;DHT22;32591;48.102;11.772;2023-02-15T00:24:36;0.70;99.90
46117;DHT22;32591;48.102;11.772;2023-02-15T00:27:03;0.60;99.90
46117;DHT22;32591;48.102;11.772;2023-02-15T00:29:31;0.70;99.90
46117;DHT22;32591;48.102;11.772;2023-02-15T00:31:59;0.70;99.90
46117;DHT22;32591;48.102;11.772;2023-02-15T00:34:26;0.70;99.90
46117;DHT22;32591;48.102;11.772;2023-02-15T00:36:54;0.60;99.90
46117;DHT22;32591;48.102;11.772;2023-02-15T00:39:21;0.50;99.90
46117;DHT22;32591;48.102;11.772;2023-02-15T00:41:49;0.60;99.90
46117;DHT22;32591;48.102;11.772;2023-02-15T00:44:16;0.60;99.90
46117;DHT22;32591;48.102;11.772;2023-02-15T00:46:43;0.70;99.90
46117;DHT22;32591;48.102;11.772;2023-02-15T00:49:11;0.70;99.90
46117;DHT22;32591;48.102;11.772;2023-02-15T00:51:38;0.70;99.90
46117;DHT22;32591;48.102;11.772;2023-02-15T00:54:05;0.60;99.90
46117;DHT22;32591;48.102;11.772;2023-02-15T00:56:33;0.60;99.90
46117;DHT22;32591;48.102;11.772;2023-02-15T00:58:59;0.60;99.90
46117;DHT22;32591;48.102;11.772;2023-02-15T01:01:26;0.60;99.90
46117;DHT22;32591;48.102;11.772;2023-02-15T01:03:53;0.60;99.90
46117;DHT22;32591;48.102;11.772;2023-02-15T01:06:21;0.60;99.90
46117;DHT22;32591;48.102;11.772;2023-02-15T01:08:48;0.60;99.90
46117;DHT22;32591;48.102;11.772;2023-02-15T01:11:17;0.60;99.90
46117;DHT22;32591;48.102;11.772;2023-02-15T01:13:48;0.60;99.90
46117;DHT22;32591;48.102;11.772;2023-02-15T01:16:16;0.60;99.90
46117;DHT22;32591;48.102;11.772;2023-02-15T01:18:43;0.50;99.90
46117;DHT22;32591;48.102;11.772;2023-02-15T01:21:11;0.60;99.90
46117;DHT22;32591;48.102;11.772;2023-02-15T01:23:41;0.60;99.90
46117;DHT22;32591;48.102;11.772;2023-02-15T01:26:09;0.60;99.90
46117;DHT22;32591;48.102;11.772;2023-02-15T01:28:37;0.60;99.90
46117;DHT22;32591;48.102;11.772;2023-02-15T01:31:08;0.60;99.90
46117;DHT22;32591;48.102;11.772;2023-02-15T01:33:37;0.60;99.90
46117;DHT22;32591;48.102;11.772;2023-02-15T01:36:04;0.60;99.90
46117;DHT22;32591;48.102;11.772;2023-02-15T01:38:32;0.50;99.90
46117;DHT22;32591;48.102;11.772;2023-02-15T01:41:01;0.60;99.90
46117;DHT22;32591;48.102;11.772;2023-02-15T01:43:45;0.60;99.90
46117;DHT22;32591;48.102;11.772;2023-02-15T01:46:16;0.60;99.90
46117;DHT22;32591;48.102;11.772;2023-02-15T01:48:47;0.50;99.90
46117;DHT22;32591;48.102;11.772;2023-02-15T01:51:17;0.70;99.90
46117;DHT22;32591;48.102;11.772;2023-02-15T01:53:52;0.50;99.90
46117;DHT22;32591;48.102;11.772;2023-02-15T01:56:26;0.50;99.90
46117;DHT22;32591;48.102;11.772;2023-02-15T01:58:57;0.50;99.90
46117;DHT22;32591;48.102;11.772;2023-02-15T02:01:27;0.50;99.90
46117;DHT22;32591;48.102;11.772;2023-02-15T02:03:59;0.40;99.90
46117;DHT22;32591;48.102;11.772;2023-02-15T02:06:29;0.40;99.90
46117;DHT22;32591;48.102;11.772;2023-02-15T02:08:57;0.40;99.90
46117;DHT22;32591;48.102;11.772;2023-02-15T02:11:26;0.40;99.90
46117;DHT22;32591;48.102;11.772;2023-02-15T02:13:54;0.40;99.90
46117;DHT22;32591;48.102;11.772;2023-02-15T02:16:24;0.40;99.90
46117;DHT22;32591;48.102;11.772;2023-02-15T02:22:40;0.40;99.90
46117;DHT22;32591;48.102;11.772;2023-02-15T02:25:34;0.40;99.90
46117;DHT22;32591;48.102;11.772;2023-02-15T02:28:23;0.30;99.90
46117;DHT22;32591;48.102;11.772;2023-02-15T02:31:28;0.30;99.90
46117;DHT22;32591;48.102;11.772;2023-02-15T02:34:05;0.30;99.90
46117;DHT22;32591;48.102;11.772;2023-02-15T02:36:40;0.30;99.90
46117;DHT22;32591;48.102;11.772;2023-02-15T02:39:23;0.30;99.90
46117;DHT22;32591;48.102;11.772;2023-02-15T02:41:58;0.40;99.90
46117;DHT22;32591;48.102;11.772;2023-02-15T02:44:34;0.40;99.90
46117;DHT22;32591;48.102;11.772;2023-02-15T02:47:06;0.40;99.90
46117;DHT22;32591;48.102;11.772;2023-02-15T02:49:39;0.30;99.90
46117;DHT22;32591;48.102;11.772;2023-02-15T02:52:37;0.40;99.90
46117;DHT22;32591;48.102;11.772;2023-02-15T02:55:06;0.30;99.90
46117;DHT22;32591;48.102;11.772;2023-02-15T02:57:40;0.30;99.90
46117;DHT22;32591;48.102;11.772;2023-02-15T03:00:12;0.30;99.90
46117;DHT22;32591;48.102;11.772;2023-02-15T03:02:44;0.30;99.90
46117;DHT22;32591;48.102;11.772;2023-02-15T03:05:19;0.30;99.90
46117;DHT22;32591;48.102;11.772;2023-02-15T03:07:50;0.30;99.90
46117;DHT22;32591;48.102;11.772;2023-02-15T03:10:21;0.30;99.90
46117;DHT22;32591;48.102;11.772;2023-02-15T03:12:49;0.30;99.90
46117;DHT22;32591;48.102;11.772;2023-02-15T03:15:20;0.30;99.90
46117;DHT22;32591;48.102;11.772;2023-02-15T03:17:52;0.30;99.90
46117;DHT22;32591;48.102;11.772;2023-02-15T03:20:27;0.30;99.90
46117;DHT22;32591;48.102;11.772;2023-02-15T03:22:59;0.20;99.90
46117;DHT22;32591;48.102;11.772;2023-02-15T03:25:31;0.10;99.90
46117;DHT22;32591;48.102;11.772;2023-02-15T03:28:02;0.00;99.90
46117;DHT22;32591;48.102;11.772;2023-02-15T03:30:34;-0.10;99.90
46117;DHT22;32591;48.102;11.772;2023-02-15T03:33:03;0.00;99.90
46117;DHT22;32591;48.102;11.772;2023-02-15T03:35:36;0.00;99.90
46117;DHT22;32591;48.102;11.772;2023-02-15T03:38:07;-0.10;99.90
46117;DHT22;32591;48.102;11.772;2023-02-15T03:40:37;-0.10;99.90
46117;DHT22;32591;48.102;11.772;2023-02-15T03:43:29;-0.10;99.90
46117;DHT22;32591;48.102;11.772;2023-02-15T03:46:06;-0.10;99.90
46117;DHT22;32591;48.102;11.772;2023-02-15T03:48:39;-0.10;99.90
46117;DHT22;32591;48.102;11.772;2023-02-15T03:51:12;-0.10;99.90
46117;DHT22;32591;48.102;11.772;2023-02-15T03:53:59;0.00;99.90
46117;DHT22;32591;48.102;11.772;2023-02-15T03:56:27;-0.10;99.90
46117;DHT22;32591;48.102;11.772;2023-02-15T03:58:54;-0.20;99.90
46117;DHT22;32591;48.102;11.772;2023-02-15T04:01:41;-0.20;99.90
46117;DHT22;32591;48.102;11.772;2023-02-15T04:04:30;-0.20;99.90
46117;DHT22;32591;48.102;11.772;2023-02-15T04:07:02;-0.10;99.90
46117;DHT22;32591;48.102;11.772;2023-02-15T04:09:30;-0.10;99.90
46117;DHT22;32591;48.102;11.772;2023-02-15T04:12:14;-0.30;99.90
46117;DHT22;32591;48.102;11.772;2023-02-15T04:14:41;-0.40;99.90
46117;DHT22;32591;48.102;11.772;2023-02-15T04:17:26;-0.40;99.90
46117;DHT22;32591;48.102;11.772;2023-02-15T04:19:53;-0.30;99.90
46117;DHT22;32591;48.102;11.772;2023-02-15T04:22:39;-0.30;99.90
46117;DHT22;32591;48.102;11.772;2023-02-15T04:25:24;-0.20;99.90
46117;DHT22;32591;48.102;11.772;2023-02-15T04:27:51;-0.10;99.90
46117;DHT22;32591;48.102;11.772;2023-02-15T04:30:20;-0.10;99.90
46117;DHT22;32591;48.102;11.772;2023-02-15T04:32:49;-0.10;99.90
46117;DHT22;32591;48.102;11.772;2023-02-15T04:35:16;0.00;99.90
46117;DHT22;32591;48.102;11.772;2023-02-15T04:37:45;0.00;99.90
46117;DHT22;32591;48.102;11.772;2023-02-15T04:40:13;0.00;99.90
46117;DHT22;32591;48.102;11.772;2023-02-15T04:42:41;0.10;99.90
46117;DHT22;32591;48.102;11.772;2023-02-15T04:45:08;0.00;99.90
46117;DHT22;32591;48.102;11.772;2023-02-15T04:47:36;0.00;99.90
46117;DHT22;32591;48.102;11.772;2023-02-15T04:50:04;0.00;99.90
46117;DHT22;32591;48.102;11.772;2023-02-15T04:52:32;0.00;99.90
46117;DHT22;32591;48.102;11.772;2023-02-15T04:55:00;-0.10;99.90
46117;DHT22;32591;48.102;11.772;2023-02-15T04:57:27;-0.10;99.90
46117;DHT22;32591;48.102;11.772;2023-02-15T04:59:55;-0.20;99.90
46117;DHT22;32591;48.102;11.772;2023-02-15T05:02:22;-0.50;99.90
46117;DHT22;32591;48.102;11.772;2023-02-15T05:04:49;-0.60;99.90
46117;DHT22;32591;48.102;11.772;2023-02-15T05:07:16;-0.70;99.90
46117;DHT22;32591;48.102;11.772;2023-02-15T05:09:44;-0.70;99.90
46117;DHT22;32591;48.102;11.772;2023-02-15T05:12:12;-0.60;99.90
46117;DHT22;32591;48.102;11.772;2023-02-15T05:14:39;-0.50;99.90
46117;DHT22;32591;48.102;11.772;2023-02-15T05:17:06;-0.40;99.90
46117;DHT22;32591;48.102;11.772;2023-02-15T05:19:33;-0.40;99.90
46117;DHT22;32591;48.102;11.772;2023-02-15T05:22:00;-0.30;99.90
46117;DHT22;32591;48.102;11.772;2023-02-15T05:24:26;-0.30;99.90
46117;DHT22;32591;48.102;11.772;2023-02-15T05:27:13;-0.30;99.90
46117;DHT22;32591;48.102;11.772;2023-02-15T05:29:57;-0.30;99.90
46117;DHT22;32591;48.102;11.772;2023-02-15T05:32:24;-0.30;99.90
46117;DHT22;32591;48.102;11.772;2023-02-15T05:34:51;-0.30;99.90
46117;DHT22;32591;48.102;11.772;2023-02-15T05:37:18;-0.20;99.90
46117;DHT22;32591;48.102;11.772;2023-02-15T05:39:45;-0.20;99.90
46117;DHT22;32591;48.102;11.772;2023-02-15T05:42:13;-0.20;99.90
46117;DHT22;32591;48.102;11.772;2023-02-15T05:44:40;-0.20;99.90
46117;DHT22;32591;48.102;11.772;2023-02-15T05:47:07;-0.40;99.90
46117;DHT22;32591;48.102;11.772;2023-02-15T05:49:34;-0.50;99.90
46117;DHT22;32591;48.102;11.772;2023-02-15T05:52:01;-0.50;99.90
46117;DHT22;32591;48.102;11.772;2023-02-15T05:54:29;-0.50;99.90
46117;DHT22;32591;48.102;11.772;2023-02-15T05:56:55;-0.50;99.90
46117;DHT22;32591;48.102;11.772;2023-02-15T05:59:24;-0.40;99.90
46117;DHT22;32591;48.102;11.772;2023-02-15T06:01:51;-0.30;99.90
46117;DHT22;32591;48.102;11.772;2023-02-15T06:04:17;-0.10;99.90
46117;DHT22;32591;48.102;11.772;2023-02-15T06:06:44;-0.20;99.90
46117;DHT22;32591;48.102;11.772;2023-02-15T06:09:11;-0.30;99.90
46117;DHT22;32591;48.102;11.772;2023-02-15T06:11:39;-0.30;99.90
46117;DHT22;32591;48.102;11.772;2023-02-15T06:14:06;-0.30;99.90
46117;DHT22;32591;48.102;11.772;2023-02-15T06:16:34;-0.30;99.90
46117;DHT22;32591;48.102;11.772;2023-02-15T06:19:01;-0.30;99.90
46117;DHT22;32591;48.102;11.772;2023-02-15T06:21:29;-0.40;99.90
46117;DHT22;32591;48.102;11.772;2023-02-15T06:23:57;-0.40;99.90
46117;DHT22;32591;48.102;11.772;2023-02-15T06:26:24;-0.30;99.90
46117;DHT22;32591;48.102;11.772;2023-02-15T06:28:51;-0.40;99.90
46117;DHT22;32591;48.102;11.772;2023-02-15T06:31:18;-0.40;99.90
46117;DHT22;32591;48.102;11.772;2023-02-15T06:33:46;-0.40;99.90
46117;DHT22;32591;48.102;11.772;2023-02-15T06:36:14;1.20;99.90
46117;DHT22;32591;48.102;11.772;2023-02-15T06:38:40;0.90;99.90
46117;DHT22;32591;48.102;11.772;2023-02-15T06:41:07;0.70;99.90
46117;DHT22;32591;48.102;11.772;2023-02-15T06:43:34;0.40;99.90
46117;DHT22;32591;48.102;11.772;2023-02-15T06:46:01;0.20;99.90
46117;DHT22;32591;48.102;11.772;2023-02-15T06:48:28;0.10;99.90
46117;DHT22;32591;48.102;11.772;2023-02-15T06:50:56;0.10;99.90
46117;DHT22;32591;48.102;11.772;2023-02-15T06:53:23;0.00;99.90
46117;DHT22;32591;48.102;11.772;2023-02-15T06:55:50;0.00;99.90
46117;DHT22;32591;48.102;11.772;2023-02-15T06:58:17;-0.10;99.90
46117;DHT22;32591;48.102;11.772;2023-02-15T07:00:43;-0.20;99.90
46117;DHT22;32591;48.102;11.772;2023-02-15T07:03:13;-0.30;99.90
46117;DHT22;32591;48.102;11.772;2023-02-15T07:05:41;-0.30;99.90
46117;DHT22;32591;48.102;11.772;2023-02-15T07:08:10;-0.20;99.90
46117;DHT22;32591;48.102;11.772;2023-02-15T07:10:37;-0.20;99.90
46117;DHT22;32591;48.102;11.772;2023-02-15T07:13:04;-0.20;99.90
46117;DHT22;32591;48.102;11.772;2023-02-15T07:15:30;-0.20;99.90
46117;DHT22;32591;48.102;11.772;2023-02-15T07:17:56;-0.20;99.90
46117;DHT22;32591;48.102;11.772;2023-02-15T07:20:24;-0.30;99.90
46117;DHT22;32591;48.102;11.772;2023-02-15T07:22:51;-0.30;99.90
46117;DHT22;32591;48.102;11.772;2023-02-15T07:25:20;-0.30;99.90
46117;DHT22;32591;48.102;11.772;2023-02-15T07:27:47;-0.20;99.90
46117;DHT22;32591;48.102;11.772;2023-02-15T07:30:15;-0.20;99.90
46117;DHT22;32591;48.102;11.772;2023-02-15T07:32:43;-0.20;99.90
46117;DHT22;32591;48.102;11.772;2023-02-15T07:35:24;-0.10;99.90
46117;DHT22;32591;48.102;11.772;2023-02-15T07:37:51;-0.20;99.90
46117;DHT22;32591;48.102;11.772;2023-02-15T07:40:20;-0.20;99.90
46117;DHT22;32591;48.102;11.772;2023-02-15T07:42:49;-0.20;99.90
46117;DHT22;32591;48.102;11.772;2023-02-15T07:45:18;-0.10;99.90
46117;DHT22;32591;48.102;11.772;2023-02-15T07:47:45;-0.10;99.90
46117;DHT22;32591;48.102;11.772;2023-02-15T07:50:12;0.00;99.90
46117;DHT22;32591;48.102;11.772;2023-02-15T07:52:39;0.00;99.90
46117;DHT22;32591;48.102;11.772;2023-02-15T07:55:06;0.00;99.90
46117;DHT22;32591;48.102;11.772;2023-02-15T07:57:35;0.00;99.90
46117;DHT22;32591;48.102;11.772;2023-02-15T08:00:03;0.10;99.90
46117;DHT22;32591;48.102;11.772;2023-02-15T08:02:31;0.20;99.90
46117;DHT22;32591;48.102;11.772;2023-02-15T08:04:57;0.20;99.90
46117;DHT22;32591;48.102;11.772;2023-02-15T08:07:24;0.30;99.90
46117;DHT22;32591;48.102;11.772;2023-02-15T08:09:51;0.40;99.90
46117;DHT22;32591;48.102;11.772;2023-02-15T08:12:19;0.40;99.90
46117;DHT22;32591;48.102;11.772;2023-02-15T08:14:47;0.40;99.90
46117;DHT22;32591;48.102;11.772;2023-02-15T08:17:14;0.50;99.90
46117;DHT22;32591;48.102;11.772;2023-02-15T08:19:41;0.50;99.90
46117;DHT22;32591;48.102;11.772;2023-02-15T08:22:11;0.50;99.90
46117;DHT22;32591;48.102;11.772;2023-02-15T08:24:40;0.90;99.90
46117;DHT22;32591;48.102;11.772;2023-02-15T08:27:10;1.00;99.90
46117;DHT22;32591;48.102;11.772;2023-02-15T08:29:38;0.90;99.90
46117;DHT22;32591;48.102;11.772;2023-02-15T08:32:10;0.90;99.90
46117;DHT22;32591;48.102;11.772;2023-02-15T08:34:40;1.00;99.90
46117;DHT22;32591;48.102;11.772;2023-02-15T08:37:08;0.90;99.90
46117;DHT22;32591;48.102;11.772;2023-02-15T08:39:35;1.00;99.90
46117;DHT22;32591;48.102;11.772;2023-02-15T08:42:02;1.10;99.90
46117;DHT22;32591;48.102;11.772;2023-02-15T08:44:30;1.10;99.90
46117;DHT22;32591;48.102;11.772;2023-02-15T08:46:56;1.20;99.90
46117;DHT22;32591;48.102;11.772;2023-02-15T08:49:29;1.20;99.90
46117;DHT22;32591;48.102;11.772;2023-02-15T08:51:56;1.20;99.90
46117;DHT22;32591;48.102;11.772;2023-02-15T08:54:23;1.20;99.90
46117;DHT22;32591;48.102;11.772;2023-02-15T08:56:50;1.30;99.90
46117;DHT22;32591;48.102;11.772;2023-02-15T08:59:19;1.30;99.90
46117;DHT22;32591;48.102;11.772;2023-02-15T09:01:48;1.30;99.90
46117;DHT22;32591;48.102;11.772;2023-02-15T09:04:16;1.30;99.90
46117;DHT22;32591;48.102;11.772;2023-02-15T09:06:46;1.30;99.90
46117;DHT22;32591;48.102;11.772;2023-02-15T09:09:14;1.40;99.90
46117;DHT22;32591;48.102;11.772;2023-02-15T09:11:43;1.60;99.90
46117;DHT22;32591;48.102;11.772;2023-02-15T09:14:13;1.60;99.90
46117;DHT22;32591;48.102;11.772;2023-02-15T09:16:41;1.60;99.90
46117;DHT22;32591;48.102;11.772;2023-02-15T09:19:10;1.70;99.90
46117;DHT22;32591;48.102;11.772;2023-02-15T09:21:37;1.70;99.90
46117;DHT22;32591;48.102;11.772;2023-02-15T09:24:07;1.60;99.90
46117;DHT22;32591;48.102;11.772;2023-02-15T09:26:37;1.70;99.90
46117;DHT22;32591;48.102;11.772;2023-02-15T09:29:06;1.80;99.90
46117;DHT22;32591;48.102;11.772;2023-02-15T09:31:38;1.90;99.90
46117;DHT22;32591;48.102;11.772;2023-02-15T09:34:07;2.00;99.90
46117;DHT22;32591;48.102;11.772;2023-02-15T09:36:34;2.00;99.90
46117;DHT22;32591;48.102;11.772;2023-02-15T09:39:07;2.00;99.90
46117;DHT22;32591;48.102;11.772;2023-02-15T09:45:01;2.30;99.90
46117;DHT22;32591;48.102;11.772;2023-02-15T09:47:57;2.50;99.90
46117;DHT22;32591;48.102;11.772;2023-02-15T09:50:50;2.70;99.90
46117;DHT22;32591;48.102;11.772;2023-02-15T09:53:45;2.90;99.90
46117;DHT22;32591;48.102;11.772;2023-02-15T09:56:29;3.00;99.90
46117;DHT22;32591;48.102;11.772;2023-02-15T09:59:09;3.10;99.90
46117;DHT22;32591;48.102;11.772;2023-02-15T10:01:47;3.20;99.90
46117;DHT22;32591;48.102;11.772;2023-02-15T10:04:28;3.40;99.90
46117;DHT22;32591;48.102;11.772;2023-02-15T10:07:11;3.50;99.90
46117;DHT22;32591;48.102;11.772;2023-02-15T10:09:52;3.60;99.90
46117;DHT22;32591;48.102;11.772;2023-02-15T10:12:39;3.70;99.90
46117;DHT22;32591;48.102;11.772;2023-02-15T10:15:24;4.00;99.90
46117;DHT22;32591;48.102;11.772;2023-02-15T10:18:13;4.10;99.90
46117;DHT22;32591;48.102;11.772;2023-02-15T10:20:54;4.30;99.90
46117;DHT22;32591;48.102;11.772;2023-02-15T10:23:38;4.50;99.90
46117;DHT22;32591;48.102;11.772;2023-02-15T10:26:18;4.50;99.90
46117;DHT22;32591;48.102;11.772;2023-02-15T10:28:50;4.60;99.90
46117;DHT22;32591;48.102;11.772;2023-02-15T10:31:24;4.50;99.90
46117;DHT22;32591;48.102;11.772;2023-02-15T10:34:11;4.60;99.90
46117;DHT22;32591;48.102;11.772;2023-02-15T10:37:11;4.80;99.90
46117;DHT22;32591;48.102;11.772;2023-02-15T10:39:59;5.10;99.90
46117;DHT22;32591;48.102;11.772;2023-02-15T10:42:41;5.10;99.90
46117;DHT22;32591;48.102;11.772;2023-02-15T10:45:20;5.30;99.90
46117;DHT22;32591;48.102;11.772;2023-02-15T10:48:12;5.50;99.90
46117;DHT22;32591;48.102;11.772;2023-02-15T10:51:01;5.70;99.90
46117;DHT22;32591;48.102;11.772;2023-02-15T10:53:43;5.80;99.90
46117;DHT22;32591;48.102;11.772;2023-02-15T10:56:20;5.80;99.90
46117;DHT22;32591;48.102;11.772;2023-02-15T10:59:04;6.00;99.90
46117;DHT22;32591;48.102;11.772;2023-02-15T11:01:44;6.00;99.90
46117;DHT22;32591;48.102;11.772;2023-02-15T11:04:39;6.10;99.90
46117;DHT22;32591;48.102;11.772;2023-02-15T11:07:14;6.10;99.90
46117;DHT22;32591;48.102;11.772;2023-02-15T11:09:46;6.20;99.90
46117;DHT22;32591;48.102;11.772;2023-02-15T11:12:17;6.30;99.90
46117;DHT22;32591;48.102;11.772;2023-02-15T11:14:50;6.50;99.90
46117;DHT22;32591;48.102;11.772;2023-02-15T11:17:24;6.50;99.90
46117;DHT22;32591;48.102;11.772;2023-02-15T11:19:58;6.40;99.90
46117;DHT22;32591;48.102;11.772;2023-02-15T11:22:31;6.50;99.90
46117;DHT22;32591;48.102;11.772;2023-02-15T11:25:01;6.70;99.90
46117;DHT22;32591;48.102;11.772;2023-02-15T11:27:30;6.80;99.90
46117;DHT22;32591;48.102;11.772;2023-02-15T11:30:01;7.00;99.90
46117;DHT22;32591;48.102;11.772;2023-02-15T11:32:34;7.00;99.90
46117;DHT22;32591;48.102;11.772;2023-02-15T11:35:16;7.00;99.90
46117;DHT22;32591;48.102;11.772;2023-02-15T11:37:49;7.00;99.90
46117;DHT22;32591;48.102;11.772;2023-02-15T11:40:22;7.10;99.90
46117;DHT22;32591;48.102;11.772;2023-02-15T11:42:53;7.30;99.90
46117;DHT22;32591;48.102;11.772;2023-02-15T11:45:26;7.30;99.90
46117;DHT22;32591;48.102;11.772;2023-02-15T11:47:57;7.50;99.90
46117;DHT22;32591;48.102;11.772;2023-02-15T11:50:26;7.40;99.90
46117;DHT22;32591;48.102;11.772;2023-02-15T11:52:58;7.40;99.90
46117;DHT22;32591;48.102;11.772;2023-02-15T11:55:27;7.40;99.90
46117;DHT22;32591;48.102;11.772;2023-02-15T11:57:59;7.60;99.90
46117;DHT22;32591;48.102;11.772;2023-02-15T12:00:33;7.60;99.90
46117;DHT22;32591;48.102;11.772;2023-02-15T12:03:09;7.70;99.90
46117;DHT22;32591;48.102;11.772;2023-02-15T12:05:42;7.70;99.90
46117;DHT22;32591;48.102;11.772;2023-02-15T12:08:16;7.80;99.90
46117;DHT22;32591;48.102;11.772;2023-02-15T12:10:58;8.00;99.90
46117;DHT22;32591;48.102;11.772;2023-02-15T12:13:27;8.20;99.90
46117;DHT22;32591;48.102;11.772;2023-02-15T12:15:57;8.20;99.90
46117;DHT22;32591;48.102;11.772;2023-02-15T12:18:35;8.10;99.90
46117;DHT22;32591;48.102;11.772;2023-02-15T12:21:07;8.20;99.90
46117;DHT22;32591;48.102;11.772;2023-02-15T12:23:41;8.40;99.90
46117;DHT22;32591;48.102;11.772;2023-02-15T12:26:10;8.50;99.90
46117;DHT22;32591;48.102;11.772;2023-02-15T12:28:40;8.60;99.90
46117;DHT22;32591;48.102;11.772;2023-02-15T12:31:19;8.70;99.90
46117;DHT22;32591;48.102;11.772;2023-02-15T12:33:50;8.80;99.90
46117;DHT22;32591;48.102;11.772;2023-02-15T12:36:20;8.70;99.90
46117;DHT22;32591;48.102;11.772;2023-02-15T12:39:17;8.70;99.90
46117;DHT22;32591;48.102;11.772;2023-02-15T12:41:57;8.70;99.90
46117;DHT22;32591;48.102;11.772;2023-02-15T12:44:27;9.00;99.90
46117;DHT22;32591;48.102;11.772;2023-02-15T12:46:57;9.20;99.90
46117;DHT22;32591;48.102;11.772;2023-02-15T12:49:28;9.40;99.90
46117;DHT22;32591;48.102;11.772;2023-02-15T12:51:57;9.50;99.90
46117;DHT22;32591;48.102;11.772;2023-02-15T12:54:31;9.40;99.90
46117;DHT22;32591;48.102;11.772;2023-02-15T12:57:24;9.40;99.90
46117;DHT22;32591;48.102;11.772;2023-02-15T12:59:54;9.40;99.90
46117;DHT22;32591;48.102;11.772;2023-02-15T13:02:26;9.50;99.90
46117;DHT22;32591;48.102;11.772;2023-02-15T13:04:56;9.50;99.90
46117;DHT22;32591;48.102;11.772;2023-02-15T13:07:29;9.60;99.90
46117;DHT22;32591;48.102;11.772;2023-02-15T13:09:58;9.80;99.90
46117;DHT22;32591;48.102;11.772;2023-02-15T13:12:27;9.80;99.90
46117;DHT22;32591;48.102;11.772;2023-02-15T13:14:57;9.90;99.90
46117;DHT22;32591;48.102;11.772;2023-02-15T13:17:27;9.90;99.90
46117;DHT22;32591;48.102;11.772;2023-02-15T13:20:00;10.00;99.90
46117;DHT22;32591;48.102;11.772;2023-02-15T13:22:35;10.10;99.90
46117;DHT22;32591;48.102;11.772;2023-02-15T13:25:12;10.10;99.90
46117;DHT22;32591;48.102;11.772;2023-02-15T13:27:42;10.10;99.90
46117;DHT22;32591;48.102;11.772;2023-02-15T13:30:23;10.10;99.90
46117;DHT22;32591;48.102;11.772;2023-02-15T13:32:55;10.20;99.90
46117;DHT22;32591;48.102;11.772;2023-02-15T13:35:30;10.30;99.90
46117;DHT22;32591;48.102;11.772;2023-02-15T13:38:14;10.30;99.90
46117;DHT22;32591;48.102;11.772;2023-02-15T13:40:52;10.40;99.90
46117;DHT22;32591;48.102;11.772;2023-02-15T13:43:32;10.50;99.90
46117;DHT22;32591;48.102;11.772;2023-02-15T13:46:14;10.40;99.90
46117;DHT22;32591;48.102;11.772;2023-02-15T13:48:54;10.40;99.90
46117;DHT22;32591;48.102;11.772;2023-02-15T13:51:34;10.50;99.90
46117;DHT22;32591;48.102;11.772;2023-02-15T13:54:36;10.50;99.90
46117;DHT22;32591;48.102;11.772;2023-02-15T13:57:43;10.50;99.90
46117;DHT22;32591;48.102;11.772;2023-02-15T14:00:22;10.50;99.90
46117;DHT22;32591;48.102;11.772;2023-02-15T14:03:16;10.50;99.90
46117;DHT22;32591;48.102;11.772;2023-02-15T14:06:27;10.50;99.90
46117;DHT22;32591;48.102;11.772;2023-02-15T14:09:11;10.80;99.90
46117;DHT22;32591;48.102;11.772;2023-02-15T14:11:52;10.90;99.90
46117;DHT22;32591;48.102;11.772;2023-02-15T14:14:47;11.00;99.90
46117;DHT22;32591;48.102;11.772;2023-02-15T14:17:33;11.00;99.90
46117;DHT22;32591;48.102;11.772;2023-02-15T14:20:15;11.00;99.90
46117;DHT22;32591;48.102;11.772;2023-02-15T14:22:49;11.00;99.90
46117;DHT22;32591;48.102;11.772;2023-02-15T14:25:25;10.90;99.90
46117;DHT22;32591;48.102;11.772;2023-02-15T14:27:59;10.60;99.90
46117;DHT22;32591;48.102;11.772;2023-02-15T14:30:32;10.20;99.90
46117;DHT22;32591;48.102;11.772;2023-02-15T14:33:05;9.90;99.90
46117;DHT22;32591;48.102;11.772;2023-02-15T14:35:34;9.60;99.90
46117;DHT22;32591;48.102;11.772;2023-02-15T14:38:09;9.40;99.90
46117;DHT22;32591;48.102;11.772;2023-02-15T14:40:46;9.30;99.90
46117;DHT22;32591;48.102;11.772;2023-02-15T14:43:37;9.30;99.90
46117;DHT22;32591;48.102;11.772;2023-02-15T14:46:19;9.20;99.90
46117;DHT22;32591;48.102;11.772;2023-02-15T14:48:51;9.10;99.90
46117;DHT22;32591;48.102;11.772;2023-02-15T14:51:54;9.10;99.90
46117;DHT22;32591;48.102;11.772;2023-02-15T14:54:54;9.20;99.90
46117;DHT22;32591;48.102;11.772;2023-02-15T14:57:26;9.20;99.90
46117;DHT22;32591;48.102;11.772;2023-02-15T14:59:57;9.20;99.90
46117;DHT22;32591;48.102;11.772;2023-02-15T15:02:29;9.20;99.90
46117;DHT22;32591;48.102;11.772;2023-02-15T15:05:02;9.20;99.90
46117;DHT22;32591;48.102;11.772;2023-02-15T15:07:41;9.20;99.90
46117;DHT22;32591;48.102;11.772;2023-02-15T15:13:39;9.30;99.90
46117;DHT22;32591;48.102;11.772;2023-02-15T15:16:29;9.20;99.90
46117;DHT22;32591;48.102;11.772;2023-02-15T15:18:58;9.10;99.90
46117;DHT22;32591;48.102;11.772;2023-02-15T15:22:02;9.00;99.90
46117;DHT22;32591;48.102;11.772;2023-02-15T15:24:53;8.90;99.90
46117;DHT22;32591;48.102;11.772;2023-02-15T15:27:47;8.90;99.90
46117;DHT22;32591;48.102;11.772;2023-02-15T15:37:18;8.50;99.90
46117;DHT22;32591;48.102;11.772;2023-02-15T15:44:17;8.40;99.90
46117;DHT22;32591;48.102;11.772;2023-02-15T15:49:59;8.40;99.90
46117;DHT22;32591;48.102;11.772;2023-02-15T15:52:28;8.50;99.90
46117;DHT22;32591;48.102;11.772;2023-02-15T15:55:03;8.40;99.90
46117;DHT22;32591;48.102;11.772;2023-02-15T15:57:34;8.20;99.90
46117;DHT22;32591;48.102;11.772;2023-02-15T16:00:28;7.90;99.90
46117;DHT22;32591;48.102;11.772;2023-02-15T16:02:58;7.60;99.90
46117;DHT22;32591;48.102;11.772;2023-02-15T16:05:25;7.50;99.90
46117;DHT22;32591;48.102;11.772;2023-02-15T16:07:52;7.40;99.90
46117;DHT22;32591;48.102;11.772;2023-02-15T16:10:22;7.30;99.90
46117;DHT22;32591;48.102;11.772;2023-02-15T16:12:52;7.20;99.90
46117;DHT22;32591;48.102;11.772;2023-02-15T16:15:21;7.00;99.90
46117;DHT22;32591;48.102;11.772;2023-02-15T16:17:52;7.00;99.90
46117;DHT22;32591;48.102;11.772;2023-02-15T16:20:24;7.00;99.90
46117;DHT22;32591;48.102;11.772;2023-02-15T16:22:59;6.80;99.90
46117;DHT22;32591;48.102;11.772;2023-02-15T16:25:41;6.60;99.90
46117;DHT22;32591;48.102;11.772;2023-02-15T16:28:13;6.40;99.90